Weather at Vinkovci Sopot Airfield

Public forecast

Using degrees Celsius for public forecast. Weather courtesy of forecast.io.

Closest aviation weather report (METAR) to Vinkovci Sopot Airfield

Closest report is Osijek Airport, 12.9 nm (23.9 km) N.

2024/05/30 03:00 (retrieved 36 minutes ago)

LDOS 300300Z 23003KT CAVOK 13/12 Q1009

Closest aviation forecast (TAF) to Vinkovci Sopot Airfield

Forecast is more than 6 hours old.

Closest forecast is Bra─Ź Airport, 148.0 nm (274.2 km) SW.

2024/05/29 16:09 Ammendment (retrieved 11 hours ago)

TAF AMD LDSB 291606Z 2916/3012 CNL